createdAt,value
2022-11-24T00:00:36.032Z,2.33
2022-11-24T00:03:04.807Z,2.30
2022-11-24T00:05:31.307Z,4.70
2022-11-24T00:07:57.674Z,2.33
2022-11-24T00:10:24.072Z,2.47
2022-11-24T00:12:50.493Z,2.37
2022-11-24T00:15:16.942Z,1.77
2022-11-24T00:17:43.306Z,2.43
2022-11-24T00:20:10.096Z,2.37
2022-11-24T00:22:36.497Z,2.07
2022-11-24T00:25:02.994Z,1.97
2022-11-24T00:27:29.417Z,2.30
2022-11-24T00:29:55.855Z,2.43
2022-11-24T00:32:22.265Z,1.83
2022-11-24T00:34:48.650Z,2.27
2022-11-24T00:37:15.054Z,1.83
2022-11-24T00:39:41.447Z,1.87
2022-11-24T00:42:07.844Z,2.10
2022-11-24T00:44:34.443Z,1.97
2022-11-24T00:47:01.095Z,2.33
2022-11-24T00:49:27.563Z,2.17
2022-11-24T00:51:53.967Z,2.80
2022-11-24T00:54:20.433Z,1.90
2022-11-24T00:56:47.470Z,2.57
2022-11-24T00:59:13.897Z,2.67
2022-11-24T01:01:41.979Z,2.17
2022-11-24T01:04:08.911Z,1.93
2022-11-24T01:06:36.059Z,2.83
2022-11-24T01:09:03.630Z,1.93
2022-11-24T01:11:54.375Z,2.20
2022-11-24T01:14:22.958Z,2.00
2022-11-24T01:16:49.467Z,2.77
2022-11-24T01:19:16.122Z,2.37
2022-11-24T01:21:42.516Z,2.10
2022-11-24T01:24:10.391Z,2.23
2022-11-24T01:26:36.841Z,4.80
2022-11-24T01:29:03.279Z,2.90
2022-11-24T01:31:29.804Z,2.10
2022-11-24T01:33:56.233Z,2.47
2022-11-24T01:36:22.720Z,2.43
2022-11-24T01:38:49.372Z,2.23
2022-11-24T01:41:25.805Z,2.33
2022-11-24T01:43:53.942Z,2.77
2022-11-24T01:46:29.357Z,2.33
2022-11-24T01:49:12.386Z,2.33
2022-11-24T01:52:01.096Z,3.57
2022-11-24T01:54:36.388Z,1.83
2022-11-24T01:57:18.046Z,1.97
2022-11-24T01:59:46.694Z,1.57
2022-11-24T02:02:14.303Z,2.00
2022-11-24T02:04:41.687Z,1.90
2022-11-24T02:07:08.680Z,2.17
2022-11-24T02:09:57.650Z,2.47
2022-11-24T02:12:26.464Z,2.80
2022-11-24T02:14:54.866Z,2.30
2022-11-24T02:17:21.874Z,2.00
2022-11-24T02:19:58.339Z,2.00
2022-11-24T02:22:35.019Z,2.50
2022-11-24T02:25:33.593Z,3.00
2022-11-24T02:28:02.143Z,2.33
2022-11-24T02:30:28.647Z,1.97
2022-11-24T02:32:55.173Z,2.57
2022-11-24T02:35:22.163Z,1.90
2022-11-24T02:37:48.612Z,3.07
2022-11-24T02:40:18.612Z,3.33
2022-11-24T02:42:47.057Z,2.80
2022-11-24T02:45:15.119Z,2.40
2022-11-24T02:47:41.609Z,3.70
2022-11-24T02:50:08.394Z,3.63
2022-11-24T02:52:34.853Z,4.03
2022-11-24T02:55:01.271Z,4.60
2022-11-24T02:57:27.669Z,3.23
2022-11-24T02:59:54.075Z,2.80
2022-11-24T03:02:20.803Z,2.90
2022-11-24T03:04:47.238Z,2.57
2022-11-24T03:07:14.596Z,2.90
2022-11-24T03:09:41.075Z,3.27
2022-11-24T03:12:07.636Z,2.70
2022-11-24T03:14:34.390Z,3.07
2022-11-24T03:17:00.937Z,2.57
2022-11-24T03:19:27.326Z,5.40
2022-11-24T03:21:53.765Z,2.90
2022-11-24T03:24:20.265Z,2.90
2022-11-24T03:26:46.700Z,3.77
2022-11-24T03:29:13.061Z,3.93
2022-11-24T03:31:39.735Z,5.23
2022-11-24T03:34:06.308Z,6.40
2022-11-24T03:36:32.677Z,7.63
2022-11-24T03:38:59.101Z,5.13
2022-11-24T03:41:25.954Z,4.10
2022-11-24T03:43:52.446Z,3.80
2022-11-24T03:46:19.111Z,4.60
2022-11-24T03:48:45.562Z,3.40
2022-11-24T03:51:12.095Z,3.23
2022-11-24T03:53:38.701Z,4.50
2022-11-24T03:56:05.299Z,5.67
2022-11-24T03:58:31.750Z,4.33
2022-11-24T04:00:58.179Z,5.07
2022-11-24T04:03:24.782Z,4.40
2022-11-24T04:05:51.811Z,4.33
2022-11-24T04:08:18.522Z,4.17
2022-11-24T04:10:45.208Z,4.17
2022-11-24T04:13:14.998Z,5.70
2022-11-24T04:15:42.813Z,4.37
2022-11-24T04:18:11.210Z,3.00
2022-11-24T04:20:38.254Z,3.63
2022-11-24T04:23:04.732Z,3.43
2022-11-24T04:25:31.566Z,3.27
2022-11-24T04:27:58.214Z,2.80
2022-11-24T04:30:27.967Z,3.90
2022-11-24T04:32:54.745Z,4.33
2022-11-24T04:35:21.672Z,3.33
2022-11-24T04:37:48.412Z,3.23
2022-11-24T04:40:15.685Z,2.93
2022-11-24T04:42:42.081Z,3.53
2022-11-24T04:45:08.925Z,3.70
2022-11-24T04:47:35.474Z,3.60
2022-11-24T04:50:02.064Z,3.80
2022-11-24T04:52:29.975Z,3.93
2022-11-24T04:54:56.393Z,3.20
2022-11-24T04:57:25.391Z,3.33
2022-11-24T04:59:52.999Z,2.80
2022-11-24T05:02:19.562Z,3.90
2022-11-24T05:04:46.161Z,3.43
2022-11-24T05:07:19.074Z,3.27
2022-11-24T05:10:10.018Z,4.10
2022-11-24T05:12:36.515Z,3.77
2022-11-24T05:15:04.676Z,4.00
2022-11-24T05:17:36.409Z,3.40
2022-11-24T05:20:05.587Z,3.87
2022-11-24T05:22:32.123Z,3.00
2022-11-24T05:24:58.505Z,2.63
2022-11-24T05:27:25.152Z,2.87
2022-11-24T05:29:51.611Z,2.87
2022-11-24T05:32:18.067Z,4.13
2022-11-24T05:34:44.570Z,5.57
2022-11-24T05:37:11.102Z,5.30
2022-11-24T05:39:37.480Z,5.90
2022-11-24T05:42:25.775Z,6.47
2022-11-24T05:44:52.900Z,8.10
2022-11-24T05:47:19.654Z,6.20
2022-11-24T05:49:46.091Z,8.83
2022-11-24T05:52:12.535Z,6.63
2022-11-24T05:54:38.940Z,7.87
2022-11-24T05:57:05.399Z,7.17
2022-11-24T05:59:31.824Z,4.70
2022-11-24T06:01:58.310Z,5.40
2022-11-24T06:04:24.803Z,7.27
2022-11-24T06:06:51.402Z,6.80
2022-11-24T06:09:17.937Z,7.87
2022-11-24T06:11:44.338Z,8.27
2022-11-24T06:14:11.481Z,7.20
2022-11-24T06:16:38.453Z,6.03
2022-11-24T06:19:05.061Z,5.00
2022-11-24T06:21:31.779Z,5.40
2022-11-24T06:23:58.359Z,5.67
2022-11-24T06:26:24.743Z,4.63
2022-11-24T06:28:51.154Z,4.00
2022-11-24T06:31:17.674Z,5.50
2022-11-24T06:33:44.320Z,4.80
2022-11-24T06:36:13.622Z,5.70
2022-11-24T06:38:40.030Z,5.40
2022-11-24T06:41:14.510Z,4.87
2022-11-24T06:43:41.162Z,5.40
2022-11-24T06:46:07.937Z,5.07
2022-11-24T06:48:34.453Z,5.30
2022-11-24T06:51:04.784Z,4.87
2022-11-24T06:53:32.262Z,5.23
2022-11-24T06:56:02.506Z,4.70
2022-11-24T06:58:28.977Z,4.10
2022-11-24T07:00:55.411Z,3.93
2022-11-24T07:03:22.034Z,3.77
2022-11-24T07:05:48.587Z,3.43
2022-11-24T07:08:17.983Z,5.13
2022-11-24T07:10:44.651Z,3.50
2022-11-24T07:13:11.028Z,4.17
2022-11-24T07:15:37.497Z,5.10
2022-11-24T07:18:04.334Z,5.20
2022-11-24T07:20:30.845Z,5.00
2022-11-24T07:22:58.108Z,5.30
2022-11-24T07:25:25.290Z,4.97
2022-11-24T07:27:59.388Z,5.87
2022-11-24T07:30:26.874Z,9.20
2022-11-24T07:32:59.051Z,11.83
2022-11-24T07:35:25.507Z,8.47
2022-11-24T07:37:58.033Z,8.13
2022-11-24T07:40:26.981Z,6.70
2022-11-24T07:42:54.301Z,6.67
2022-11-24T07:45:21.122Z,7.33
2022-11-24T07:47:47.560Z,12.10
2022-11-24T07:50:14.153Z,13.93
2022-11-24T07:52:40.538Z,10.20
2022-11-24T07:55:07.987Z,7.70
2022-11-24T07:57:35.125Z,6.30
2022-11-24T08:00:01.902Z,7.10
2022-11-24T08:02:28.267Z,7.20
2022-11-24T08:04:54.758Z,7.07
2022-11-24T08:07:21.245Z,7.37
2022-11-24T08:09:48.322Z,6.50
2022-11-24T08:12:16.429Z,7.07
2022-11-24T08:14:43.303Z,5.97
2022-11-24T08:17:09.743Z,6.27
2022-11-24T08:19:36.270Z,9.67
2022-11-24T08:22:02.863Z,10.57
2022-11-24T08:24:31.419Z,9.53
2022-11-24T08:26:58.141Z,7.90
2022-11-24T08:29:28.597Z,8.20
2022-11-24T08:31:57.159Z,6.70
2022-11-24T08:34:25.960Z,6.10
2022-11-24T08:36:52.537Z,5.77
2022-11-24T08:39:19.059Z,4.47
2022-11-24T08:41:45.715Z,4.47
2022-11-24T08:44:15.783Z,3.87
2022-11-24T08:46:42.265Z,2.93
2022-11-24T08:49:09.770Z,2.70
2022-11-24T08:51:36.668Z,3.37
2022-11-24T08:54:03.828Z,3.13
2022-11-24T08:56:33.025Z,2.90
2022-11-24T08:59:00.182Z,5.10
2022-11-24T09:01:27.298Z,5.80
2022-11-24T09:03:54.426Z,6.23
2022-11-24T09:06:27.336Z,5.40
2022-11-24T09:08:54.779Z,5.90
2022-11-24T09:11:22.069Z,3.90
2022-11-24T09:13:48.506Z,3.93
2022-11-24T09:16:21.116Z,2.90
2022-11-24T09:18:48.339Z,2.60
2022-11-24T09:21:20.203Z,2.30
2022-11-24T09:23:51.655Z,1.87
2022-11-24T09:26:27.100Z,3.50
2022-11-24T09:28:55.040Z,2.43
2022-11-24T09:31:24.557Z,2.20
2022-11-24T09:33:52.334Z,1.90
2022-11-24T09:36:19.282Z,2.90
2022-11-24T09:38:46.100Z,2.47
2022-11-24T09:41:27.394Z,2.50
2022-11-24T09:44:07.973Z,2.40
2022-11-24T09:46:55.493Z,2.20
2022-11-24T09:49:51.301Z,2.17
2022-11-24T09:52:28.146Z,1.73
2022-11-24T09:55:00.345Z,1.47
2022-11-24T09:57:36.967Z,2.17
2022-11-24T10:00:12.375Z,1.97
2022-11-24T10:02:39.228Z,2.27
2022-11-24T10:05:06.884Z,1.50
2022-11-24T10:07:41.648Z,1.77
2022-11-24T10:10:22.917Z,2.53
2022-11-24T10:13:11.136Z,2.00
2022-11-24T10:16:26.590Z,2.50
2022-11-24T10:19:02.024Z,1.70
2022-11-24T10:21:49.935Z,1.70
2022-11-24T10:24:38.395Z,1.90
2022-11-24T10:27:30.386Z,1.70
2022-11-24T10:29:57.096Z,2.00
2022-11-24T10:32:36.694Z,1.70
2022-11-24T10:35:26.530Z,1.53
2022-11-24T10:38:26.657Z,1.60
2022-11-24T10:40:59.511Z,1.80
2022-11-24T10:43:28.074Z,1.80
2022-11-24T10:46:12.361Z,3.67
2022-11-24T10:48:44.060Z,2.87
2022-11-24T10:51:40.985Z,3.07
2022-11-24T10:54:16.478Z,2.60
2022-11-24T10:56:44.473Z,2.10
2022-11-24T10:59:35.053Z,1.57
2022-11-24T11:02:02.692Z,1.70
2022-11-24T11:04:35.265Z,2.40
2022-11-24T11:07:18.695Z,1.93
2022-11-24T11:09:46.820Z,2.00
2022-11-24T11:12:43.524Z,2.37
2022-11-24T11:15:26.614Z,2.50
2022-11-24T11:18:00.048Z,1.70
2022-11-24T11:20:36.622Z,2.03
2022-11-24T11:23:20.978Z,2.00
2022-11-24T11:25:47.469Z,1.80
2022-11-24T11:28:18.463Z,2.13
2022-11-24T11:31:22.215Z,2.47
2022-11-24T11:34:06.378Z,2.03
2022-11-24T11:36:47.630Z,2.87
2022-11-24T11:39:31.942Z,2.90
2022-11-24T11:42:10.503Z,1.93
2022-11-24T11:44:52.274Z,2.47
2022-11-24T11:47:45.449Z,1.90
2022-11-24T11:50:14.381Z,1.90
2022-11-24T11:53:05.114Z,1.80
2022-11-24T11:55:49.860Z,1.97
2022-11-24T11:59:01.723Z,2.17
2022-11-24T12:01:52.043Z,2.00
2022-11-24T12:04:53.014Z,1.70
2022-11-24T12:07:57.308Z,2.30
2022-11-24T12:10:40.293Z,2.20
2022-11-24T12:13:37.561Z,1.60
2022-11-24T12:16:31.533Z,1.70
2022-11-24T12:19:19.579Z,2.73
2022-11-24T12:21:58.775Z,2.33
2022-11-24T12:25:03.258Z,1.60
2022-11-24T12:27:51.014Z,2.00
2022-11-24T12:30:20.498Z,2.43
2022-11-24T12:33:05.400Z,2.07
2022-11-24T12:35:45.672Z,2.27
2022-11-24T12:38:33.951Z,1.70
2022-11-24T12:41:45.484Z,1.60
2022-11-24T12:44:56.965Z,2.57
2022-11-24T12:47:26.212Z,1.87
2022-11-24T12:50:03.996Z,2.00
2022-11-24T12:52:46.617Z,1.93
2022-11-24T12:55:18.330Z,2.20
2022-11-24T12:57:55.372Z,2.97
2022-11-24T13:00:25.082Z,2.13
2022-11-24T13:03:14.355Z,2.10
2022-11-24T13:05:58.720Z,2.53
2022-11-24T13:08:26.881Z,2.40
2022-11-24T13:13:27.946Z,1.70
2022-11-24T13:16:20.712Z,1.97
2022-11-24T13:18:52.417Z,2.27
2022-11-24T13:21:28.283Z,1.70
2022-11-24T13:23:59.650Z,1.73
2022-11-24T13:26:42.519Z,1.70
2022-11-24T13:29:27.337Z,1.63
2022-11-24T13:32:17.697Z,2.00
2022-11-24T13:34:45.449Z,1.63
2022-11-24T13:37:34.553Z,1.87
2022-11-24T13:40:22.556Z,2.07
2022-11-24T13:42:55.183Z,2.43
2022-11-24T13:45:41.449Z,1.80
2022-11-24T13:48:28.135Z,2.37
2022-11-24T13:50:54.667Z,2.07
2022-11-24T13:53:34.917Z,1.70
2022-11-24T13:56:13.642Z,1.70
2022-11-24T13:58:45.793Z,1.97
2022-11-24T14:01:17.832Z,1.73
2022-11-24T14:06:53.246Z,2.40
2022-11-24T14:09:43.580Z,3.50
2022-11-24T14:12:16.907Z,2.63
2022-11-24T14:14:45.440Z,2.27
2022-11-24T14:17:16.579Z,1.77
2022-11-24T14:19:45.631Z,2.10
2022-11-24T14:22:22.505Z,1.90
2022-11-24T14:24:59.857Z,1.97
2022-11-24T14:27:32.411Z,1.97
2022-11-24T14:30:02.318Z,2.30
2022-11-24T14:32:29.172Z,2.10
2022-11-24T14:34:56.942Z,3.53
2022-11-24T14:37:23.558Z,1.70
2022-11-24T14:39:50.048Z,2.57
2022-11-24T14:42:17.911Z,2.33
2022-11-24T14:44:52.665Z,2.20
2022-11-24T14:47:32.933Z,2.60
2022-11-24T14:50:15.097Z,2.57
2022-11-24T14:52:59.947Z,2.40
2022-11-24T14:55:37.772Z,2.47
2022-11-24T14:58:30.379Z,2.90
2022-11-24T15:01:32.864Z,4.10
2022-11-24T15:07:29.257Z,1.90
2022-11-24T15:09:58.595Z,2.27
2022-11-24T15:12:33.816Z,2.37
2022-11-24T15:15:04.922Z,2.60
2022-11-24T15:17:31.559Z,3.20
2022-11-24T15:20:03.330Z,3.00
2022-11-24T15:22:42.064Z,2.07
2022-11-24T15:25:40.815Z,2.67
2022-11-24T15:28:08.617Z,2.73
2022-11-24T15:30:36.687Z,2.97
2022-11-24T15:33:03.539Z,2.37
2022-11-24T15:35:31.710Z,2.67
2022-11-24T15:37:58.836Z,3.53
2022-11-24T15:40:25.293Z,3.17
2022-11-24T15:42:54.026Z,3.20
2022-11-24T15:45:22.656Z,3.27
2022-11-24T15:47:49.198Z,2.13
2022-11-24T15:50:16.326Z,2.80
2022-11-24T15:52:43.606Z,2.57
2022-11-24T15:55:18.277Z,2.93
2022-11-24T15:57:45.085Z,2.63
2022-11-24T16:00:19.893Z,3.00
2022-11-24T16:02:46.452Z,2.60
2022-11-24T16:05:14.129Z,2.37
2022-11-24T16:07:40.921Z,2.73
2022-11-24T16:10:19.155Z,2.73
2022-11-24T16:12:45.555Z,3.80
2022-11-24T16:15:11.991Z,4.37
2022-11-24T16:17:38.443Z,5.30
2022-11-24T16:20:05.829Z,5.33
2022-11-24T16:22:32.265Z,4.83
2022-11-24T16:24:58.762Z,6.10
2022-11-24T16:27:25.192Z,6.60
2022-11-24T16:29:51.572Z,7.93
2022-11-24T16:32:17.960Z,8.23
2022-11-24T16:34:44.404Z,6.30
2022-11-24T16:37:11.033Z,5.57
2022-11-24T16:39:37.467Z,4.63
2022-11-24T16:42:03.993Z,4.87
2022-11-24T16:44:30.635Z,4.10
2022-11-24T16:46:57.166Z,4.00
2022-11-24T16:49:23.597Z,3.90
2022-11-24T16:51:50.135Z,3.77
2022-11-24T16:54:16.593Z,4.33
2022-11-24T16:56:43.061Z,3.97
2022-11-24T16:59:09.648Z,4.77
2022-11-24T17:01:36.191Z,4.40
2022-11-24T17:04:03.255Z,5.00
2022-11-24T17:06:32.737Z,3.50
2022-11-24T17:08:59.798Z,3.70
2022-11-24T17:11:28.271Z,3.30
2022-11-24T17:13:57.178Z,4.40
2022-11-24T17:16:25.188Z,4.20
2022-11-24T17:18:51.984Z,3.67
2022-11-24T17:21:21.030Z,3.70
2022-11-24T17:23:48.065Z,4.40
2022-11-24T17:26:16.911Z,4.13
2022-11-24T17:28:43.973Z,4.73
2022-11-24T17:31:32.246Z,4.00
2022-11-24T17:34:00.287Z,4.87
2022-11-24T17:36:28.180Z,4.60
2022-11-24T17:38:54.644Z,5.20
2022-11-24T17:41:22.853Z,6.67
2022-11-24T17:43:55.455Z,6.27
2022-11-24T17:46:23.646Z,5.67
2022-11-24T17:48:50.319Z,5.60
2022-11-24T17:51:19.471Z,6.43
2022-11-24T17:53:49.484Z,7.83
2022-11-24T17:56:24.139Z,6.83
2022-11-24T17:58:55.239Z,7.70
2022-11-24T18:01:22.732Z,9.80
2022-11-24T18:03:53.372Z,6.33
2022-11-24T18:06:20.608Z,5.50
2022-11-24T18:08:47.143Z,4.40
2022-11-24T18:11:16.015Z,4.70
2022-11-24T18:14:01.087Z,4.10
2022-11-24T18:16:30.209Z,4.20
2022-11-24T18:19:14.611Z,4.70
2022-11-24T18:21:42.288Z,3.80
2022-11-24T18:24:10.613Z,2.97
2022-11-24T18:26:37.958Z,3.80
2022-11-24T18:29:04.558Z,4.27
2022-11-24T18:31:32.205Z,4.30
2022-11-24T18:33:59.486Z,4.20
2022-11-24T18:36:30.318Z,4.30
2022-11-24T18:39:00.443Z,4.80
2022-11-24T18:41:27.181Z,5.00
2022-11-24T18:43:53.607Z,5.37
2022-11-24T18:46:20.176Z,5.53
2022-11-24T18:48:47.136Z,4.73
2022-11-24T18:51:16.715Z,5.90
2022-11-24T18:53:45.095Z,6.27
2022-11-24T18:56:13.910Z,5.27
2022-11-24T18:58:40.339Z,4.70
2022-11-24T19:01:21.159Z,5.60
2022-11-24T19:03:50.080Z,4.90
2022-11-24T19:06:20.436Z,4.30
2022-11-24T19:08:47.967Z,4.63
2022-11-24T19:11:19.660Z,4.77
2022-11-24T19:13:47.530Z,4.60
2022-11-24T19:16:14.254Z,4.67
2022-11-24T19:18:40.898Z,4.67
2022-11-24T19:21:07.425Z,4.73
2022-11-24T19:23:34.706Z,3.80
2022-11-24T19:26:02.215Z,4.50
2022-11-24T19:28:28.717Z,5.77
2022-11-24T19:31:00.389Z,6.87
2022-11-24T19:33:27.092Z,8.10
2022-11-24T19:36:05.289Z,8.63
2022-11-24T19:38:32.973Z,11.00
2022-11-24T19:41:13.345Z,9.77
2022-11-24T19:43:40.862Z,9.27
2022-11-24T19:46:10.136Z,8.23
2022-11-24T19:48:43.156Z,7.20
2022-11-24T19:51:15.349Z,7.13
2022-11-24T19:53:43.174Z,7.83
2022-11-24T19:56:21.194Z,8.30
2022-11-24T19:58:49.132Z,6.90
2022-11-24T20:01:18.898Z,9.20
2022-11-24T20:03:53.309Z,10.07
2022-11-24T20:06:19.730Z,7.40
2022-11-24T20:08:46.215Z,6.30
2022-11-24T20:11:15.948Z,6.13
2022-11-24T20:13:44.387Z,6.57
2022-11-24T20:16:16.827Z,8.10
2022-11-24T20:18:45.542Z,6.30
2022-11-24T20:21:16.891Z,7.00
2022-11-24T20:23:44.353Z,5.20
2022-11-24T20:26:14.348Z,4.97
2022-11-24T20:28:41.413Z,7.40
2022-11-24T20:31:10.963Z,8.23
2022-11-24T20:33:38.533Z,6.97
2022-11-24T20:36:16.329Z,6.87
2022-11-24T20:38:43.618Z,7.17
2022-11-24T20:41:15.743Z,8.13
2022-11-24T20:43:43.270Z,7.20
2022-11-24T20:46:13.033Z,5.20
2022-11-24T20:48:40.012Z,6.03
2022-11-24T20:51:21.574Z,5.50
2022-11-24T20:53:52.694Z,5.20
2022-11-24T20:56:21.867Z,4.70
2022-11-24T20:58:48.437Z,4.20
2022-11-24T21:01:17.810Z,5.50
2022-11-24T21:03:45.722Z,5.23
2022-11-24T21:06:13.699Z,5.63
2022-11-24T21:08:41.969Z,5.17
2022-11-24T21:11:11.170Z,5.77
2022-11-24T21:13:39.163Z,5.40
2022-11-24T21:16:27.524Z,5.93
2022-11-24T21:18:59.796Z,5.20
2022-11-24T21:21:33.336Z,5.07
2022-11-24T21:24:04.651Z,4.90
2022-11-24T21:26:31.178Z,5.10
2022-11-24T21:28:57.918Z,4.60
2022-11-24T21:31:24.450Z,5.97
2022-11-24T21:33:52.945Z,5.40
2022-11-24T21:36:22.826Z,5.60
2022-11-24T21:38:52.774Z,6.73
2022-11-24T21:41:19.613Z,7.33
2022-11-24T21:43:46.159Z,6.77
2022-11-24T21:46:13.524Z,6.80
2022-11-24T21:48:41.827Z,5.03
2022-11-24T21:51:13.893Z,4.90
2022-11-24T21:53:40.745Z,5.40
2022-11-24T21:56:12.663Z,5.30
2022-11-24T21:59:05.429Z,4.43
2022-11-24T22:01:31.885Z,3.67
2022-11-24T22:03:58.485Z,3.70
2022-11-24T22:06:24.878Z,4.00
2022-11-24T22:08:51.375Z,4.13
2022-11-24T22:11:20.634Z,3.87
2022-11-24T22:13:47.492Z,4.17
2022-11-24T22:16:16.728Z,3.73
2022-11-24T22:18:44.085Z,3.33
2022-11-24T22:21:24.016Z,3.63
2022-11-24T22:23:52.472Z,2.80
2022-11-24T22:26:21.433Z,3.40
2022-11-24T22:28:48.658Z,3.10
2022-11-24T22:31:17.290Z,3.40
2022-11-24T22:33:44.315Z,3.57
2022-11-24T22:36:12.288Z,5.30
2022-11-24T22:38:39.407Z,3.60
2022-11-24T22:41:08.605Z,3.30
2022-11-24T22:43:36.859Z,3.60
2022-11-24T22:46:08.563Z,3.93
2022-11-24T22:48:35.367Z,3.93
2022-11-24T22:51:10.577Z,4.13
2022-11-24T22:53:37.688Z,3.53
2022-11-24T22:56:09.597Z,3.60
2022-11-24T22:58:37.223Z,3.80
2022-11-24T23:01:05.272Z,2.80
2022-11-24T23:03:33.197Z,3.73
2022-11-24T23:06:01.018Z,3.17
2022-11-24T23:08:27.596Z,3.43
2022-11-24T23:11:02.532Z,3.60
2022-11-24T23:13:29.214Z,3.30
2022-11-24T23:16:25.173Z,3.83
2022-11-24T23:18:53.980Z,3.57
2022-11-24T23:21:29.293Z,3.37
2022-11-24T23:23:56.594Z,4.23
2022-11-24T23:26:25.166Z,4.33
2022-11-24T23:28:51.649Z,5.70
2022-11-24T23:31:21.373Z,4.37
2022-11-24T23:33:47.920Z,4.63
2022-11-24T23:36:20.100Z,4.67
2022-11-24T23:38:47.712Z,4.90
2022-11-24T23:41:19.636Z,5.03
2022-11-24T23:43:46.315Z,6.27
2022-11-24T23:46:18.245Z,3.80
2022-11-24T23:48:45.358Z,3.40
2022-11-24T23:51:17.462Z,3.70
2022-11-24T23:53:44.787Z,3.50
2022-11-24T23:56:13.848Z,3.70
2022-11-24T23:58:40.971Z,3.27
